Flight Track Log - Related Links

Times and Time Zones

All times are in EDT time to prevent confusion due to time zone crossing. See the XLS218 flight status page for this flight to view local times or setup timezone preferences in your user account.

Time Position Orientation Groundspeed Altitude Reporting Facility
EDT Latitude Longitude Course Direction KTS MPH feet Rate Location/Type
Sat 10:28:49 AM 42.7214 -73.8050 145° Southeast 225 259 1,200  Level Boston Center
Sat 10:29:55 AM 42.6597 -73.7472 145° Southeast 253 291 3,600 1,465 Climbing Boston Center
Sat 10:30:56 AM 42.5997 -73.6925 146° Southeast 272 313 4,300 1,500 Climbing Boston Center
Sat 10:31:35 AM 42.5586 -73.6436 139° Southeast 295 339 6,100 2,460 Climbing Boston Center
Sat 10:32:36 AM 42.5136 -73.5639 127° Southeast 301 346 8,400 2,380 Climbing Boston Center
Sat 10:33:36 AM 42.4583 -73.4644 127° Southeast 302 348 10,900 1,311 Climbing Boston Center
Sat 10:34:35 AM 42.3989 -73.3594 127° Southeast 359 413 11,000 756 Climbing Boston Center
Sat 10:35:35 AM 42.3350 -73.2489 128° Southeast 380 437 12,400 992 Climbing Boston Center
Sat 10:36:36 AM 42.2547 -73.1133 129° Southeast 400 460 13,000 298 Climbing Boston Center
Sat 10:37:36 AM 42.1842 -73.0228 136° Southeast 400 460 13,000  Level Boston Center
Sat 10:38:34 AM 42.0972 -72.9044 135° Southeast 400 460 13,000  Level Boston Center
Sat 10:39:34 AM 42.0183 -72.7978 135° Southeast 406 467 13,000  Level Boston Center
Sat 10:40:36 AM 41.9417 -72.6914 134° Southeast 406 467 13,000 -197 Level Boston Center
Sat 10:41:36 AM 41.8731 -72.5711 127° Southeast 407 468 12,600 -661 Descending Boston Center
Sat 10:42:34 AM 41.8147 -72.4622 126° Southeast 407 468 11,700 -807 Descending Boston Center
Sat 10:43:35 AM 41.7417 -72.3317 127° Southeast 402 463 11,000 -347 Descending Boston Center
Sat 10:44:35 AM 41.6769 -72.2150 127° Southeast 397 457 11,000  Level Boston Center
Sat 10:45:36 AM 41.6122 -72.0958 126° Southeast 391 450 11,000 -496 Level Boston Center
Sat 10:46:48 AM 41.5078 -72.0575 165° South 334 384 9,900 -496 Descending Boston Center
Sat 10:47:49 AM 41.4308 -72.1356 217° Southwest 344 396 9,900 -151 Level Boston Center
Sat 10:50:07 AM 41.2667 -72.3500 225° Southwest 350 403 9,400 -727 Descending New York TRACON
Sat 10:51:07 AM 41.2000 -72.4333 223° Southwest 282 325 7,500 -1,700 Descending New York TRACON
Sat 10:52:07 AM 41.1500 -72.5000 225° Southwest 269 310 6,000 -1,200 Descending New York TRACON
Sat 10:53:07 AM 41.1000 -72.5667 225° Southwest 250 288 5,100 -500 Descending New York TRACON
Sat 10:54:07 AM 41.0667 -72.6333 236° Southwest 256 295 5,000 -50 Descending New York TRACON
Sat 10:55:07 AM 41.0167 -72.7167 232° Southwest 262 302 5,000 -368 Level New York TRACON
Sat 10:56:01 AM 40.9833 -72.8000 242° Southwest 261 300 4,300 -1,350 Descending New York TRACON
Sat 10:57:07 AM 40.9333 -72.8667 225° Southwest 253 291 2,300 -1,100 Descending New York TRACON
Sat 10:58:01 AM 40.9000 -72.9333 237° Southwest 233 268 2,100 -350 Descending New York TRACON
Sat 10:59:07 AM 40.8667 -73.0000 237° Southwest 210 242 1,600 -446 Descending New York TRACON
Sat 11:00:02 AM 40.8333 -73.0500 229° Southwest 179 206 1,200 -678 Descending New York TRACON
Sat 11:01:02 AM 40.8000 -73.0833 217° Southwest 146 168 300 -900 Descending New York TRACON
Sat 11:03:00 AM 40.7952 -73.1002 237° Southwest  Level Estimated

Login

Don't have an account? Register now (free) for customized features, flight alerts, and more!